FMMI/TNR METAR and TAF weather

Enter ICAO airport designator
Station Type Date Time Source
FMMI METAR 2020/07/05 04:00 UTC NOAA

FMMI 050400Z VRB03KT 9999 FEW017 11/09 Q1024 NOSIG


Station Type Date Time Source
FMMI Decoded METAR 2020/07/05 04:00 UTC NOAA

Antananarivo / Ivato, Madagascar (FMMI) 18-48S 047-29E 1276M
Jul 05, 2020 - 12:00 AM EDT / 2020.07.05 0400 UTC
Wind: Variable at 3 MPH (3 KT):0
Visibility: greater than 7 mile(s):0
Sky conditions: mostly clear
Temperature: 51 F (11 C)
Dew Point: 48 F (9 C)
Relative Humidity: 87%
Pressure (altimeter): 30.24 in. Hg (1024 hPa)
ob: FMMI 050400Z VRB03KT 9999 FEW017 11/09 Q1024 NOSIG
cycle: 4

Station Type Date Time Source
FMMI TAF 2020/07/05 00:00 UTC NOAA

TAF FMMI 042300Z 0500/0606 13008KT 9999 FEW017 BKN020

Example: see airport list